Time;durP1;ratioP1;P1;durP2;ratioP2;P2;SDS_P1;SDS_P2;PMS_P1;PMS_P2;Temp;Humidity;BMP_temperature;BMP_pressure;BME280_temperature;BME280_humidity;BME280_pressure;Samples;Min_cycle;Max_cycle;Signal;HPM_P1;HPM_P2
2023/07/13 00:00:36;;;;;;;8.80;1.60;;;18.10;99.90;;;;;;5079266;28;20051;-68
2023/07/13 00:03:02;;;;;;;3.50;1.02;;;18.10;99.90;;;;;;5072831;28;20278;-68
2023/07/13 00:05:28;;;;;;;4.28;1.17;;;18.10;99.90;;;;;;5073927;28;20120;-67
2023/07/13 00:07:54;;;;;;;5.72;0.98;;;18.10;99.90;;;;;;5082390;28;20202;-67
2023/07/13 00:10:21;;;;;;;3.35;1.00;;;18.10;99.90;;;;;;5069167;28;20070;-67
2023/07/13 00:12:47;;;;;;;4.57;1.42;;;18.10;99.90;;;;;;5064719;28;20041;-68
2023/07/13 00:15:25;;;;;;;8.15;0.70;;;18.00;99.90;;;;;;5072781;28;20159;-68
2023/07/13 00:17:55;;;;;;;5.53;0.95;;;18.00;99.90;;;;;;5068791;28;20044;-67
2023/07/13 00:20:24;;;;;;;7.15;1.05;;;18.00;99.90;;;;;;5071296;28;20063;-67
2023/07/13 00:22:53;;;;;;;4.53;1.00;;;18.00;99.90;;;;;;5065048;28;20036;-67
2023/07/13 00:25:24;;;;;;;3.92;0.90;;;18.00;99.90;;;;;;5072245;28;20044;-68
2023/07/13 00:27:50;;;;;;;3.38;0.88;;;18.00;99.90;;;;;;5060709;28;20032;-68
2023/07/13 00:30:16;;;;;;;3.72;0.65;;;18.00;99.90;;;;;;5078940;28;20433;-68
2023/07/13 00:32:42;;;;;;;5.32;0.80;;;17.90;99.90;;;;;;5076518;28;20055;-68
2023/07/13 00:35:08;;;;;;;4.15;0.95;;;17.90;99.90;;;;;;5071123;28;20339;-68
2023/07/13 00:37:35;;;;;;;;;;;17.90;99.90;;;;;;5070940;28;20051;-68
2023/07/13 00:40:05;;;;;;;5.20;1.13;;;17.90;99.90;;;;;;5070378;28;20341;-68
2023/07/13 00:42:31;;;;;;;1.92;0.60;;;17.80;99.90;;;;;;5068341;28;20131;-67
2023/07/13 00:45:20;;;;;;;6.45;1.17;;;17.80;99.90;;;;;;5072779;28;20032;-68
2023/07/13 00:47:46;;;;;;;3.30;1.10;;;17.80;99.90;;;;;;5047470;28;20036;-67
2023/07/13 00:50:15;;;;;;;6.03;1.48;;;17.70;99.90;;;;;;5067742;28;20505;-68
2023/07/13 00:52:46;;;;;;;4.70;1.00;;;17.80;99.90;;;;;;5069759;28;20131;-67
2023/07/13 00:55:13;;;;;;;1.52;0.60;;;17.70;99.90;;;;;;5073122;28;20036;-68
2023/07/13 00:57:40;;;;;;;3.63;0.77;;;17.70;99.90;;;;;;5069077;28;20100;-67
2023/07/13 01:00:08;;;;;;;3.65;0.70;;;17.60;99.90;;;;;;5072909;28;20094;-67
2023/07/13 01:02:38;;;;;;;3.25;0.60;;;17.70;99.90;;;;;;5068631;28;20431;-67
2023/07/13 01:05:15;;;;;;;6.88;1.20;;;17.60;99.90;;;;;;5071866;28;20041;-68
2023/07/13 01:07:43;;;;;;;3.65;0.68;;;17.60;99.90;;;;;;5077670;22;20041;-66
2023/07/13 01:10:11;;;;;;;2.25;0.70;;;17.60;99.90;;;;;;5041103;28;20033;-67
2023/07/13 01:12:36;;;;;;;2.05;0.45;;;17.50;99.90;;;;;;5047803;28;20037;-67
2023/07/13 01:15:04;;;;;;;3.58;0.55;;;17.50;99.90;;;;;;5032461;28;20458;-67
2023/07/13 01:17:32;;;;;;;3.83;0.50;;;17.50;99.90;;;;;;5031292;28;20052;-67
2023/07/13 01:19:59;;;;;;;2.83;0.50;;;17.50;99.90;;;;;;5033546;28;20041;-67
2023/07/13 01:22:26;;;;;;;3.15;0.55;;;17.50;99.90;;;;;;5034203;28;20128;-67
2023/07/13 01:24:53;;;;;;;1.88;0.32;;;17.50;99.90;;;;;;5021288;28;20048;-66
2023/07/13 01:27:25;;;;;;;1.20;0.30;;;17.40;99.90;;;;;;5027728;28;20090;-66
2023/07/13 01:29:52;;;;;;;3.60;0.50;;;17.50;99.90;;;;;;5043169;28;20056;-66
2023/07/13 01:32:23;;;;;;;3.65;0.50;;;17.40;99.90;;;;;;5033161;28;20047;-66
2023/07/13 01:34:53;;;;;;;1.50;0.50;;;17.40;99.90;;;;;;5024148;28;20033;-67
2023/07/13 01:37:20;;;;;;;2.28;0.57;;;17.40;99.90;;;;;;5050926;28;20134;-67
2023/07/13 01:39:47;;;;;;;4.57;0.70;;;17.40;99.90;;;;;;5025783;28;20521;-66
2023/07/13 01:42:13;;;;;;;0.80;0.30;;;17.40;99.90;;;;;;5028569;28;20049;-66
2023/07/13 01:44:39;;;;;;;2.35;0.68;;;17.30;99.90;;;;;;5048987;28;20394;-66
2023/07/13 01:47:05;;;;;;;2.63;0.70;;;17.30;99.90;;;;;;5036831;28;20041;-66
2023/07/13 01:49:31;;;;;;;2.95;0.40;;;17.30;99.90;;;;;;5027305;28;20052;-66
2023/07/13 01:51:57;;;;;;;2.97;0.47;;;17.30;99.90;;;;;;5054455;28;20473;-66
2023/07/13 01:54:23;;;;;;;3.80;0.98;;;17.30;99.90;;;;;;5032604;28;20049;-67
2023/07/13 01:56:49;;;;;;;1.25;0.55;;;17.30;99.90;;;;;;5042687;28;20056;-67
2023/07/13 01:59:14;;;;;;;2.15;0.60;;;17.20;99.90;;;;;;5046585;28;20048;-66
2023/07/13 02:01:40;;;;;;;1.88;0.60;;;17.20;99.90;;;;;;5028047;28;20050;-66
2023/07/13 02:04:06;;;;;;;5.53;1.08;;;17.20;99.90;;;;;;5027400;28;20148;-67
2023/07/13 02:06:32;;;;;;;2.42;0.47;;;17.20;99.90;;;;;;5046707;28;20115;-67
2023/07/13 02:08:59;;;;;;;2.80;0.63;;;17.20;99.90;;;;;;5028429;28;20144;-66
2023/07/13 02:11:25;;;;;;;2.58;0.70;;;17.20;99.90;;;;;;5050547;28;20471;-67
2023/07/13 02:13:51;;;;;;;2.58;0.50;;;17.20;99.90;;;;;;5050371;28;20507;-67
2023/07/13 02:16:17;;;;;;;1.95;0.52;;;17.20;99.90;;;;;;5020259;28;20102;-67
2023/07/13 02:18:43;;;;;;;3.80;0.63;;;17.10;99.90;;;;;;5049641;28;20041;-67
2023/07/13 02:21:09;;;;;;;4.47;0.82;;;17.10;99.90;;;;;;5046455;28;20077;-67
2023/07/13 02:23:35;;;;;;;5.55;1.00;;;17.10;99.90;;;;;;5046286;28;20445;-67
2023/07/13 02:26:02;;;;;;;;;;;17.10;99.90;;;;;;5046787;28;20103;-67
2023/07/13 02:28:28;;;;;;;5.38;1.02;;;17.00;99.90;;;;;;5046474;28;19920;-66
2023/07/13 02:30:54;;;;;;;2.13;0.55;;;17.00;99.90;;;;;;5035020;28;20508;-67
2023/07/13 02:33:19;;;;;;;2.90;0.90;;;17.00;99.90;;;;;;5012431;28;20029;-66
2023/07/13 02:35:45;;;;;;;4.10;1.00;;;17.00;99.90;;;;;;5038954;28;20134;-66
2023/07/13 02:38:11;;;;;;;4.13;1.15;;;17.00;99.90;;;;;;5055728;28;20509;-68
2023/07/13 02:40:38;;;;;;;3.22;1.20;;;16.90;99.90;;;;;;5027731;28;20277;-67
2023/07/13 02:43:04;;;;;;;4.88;1.20;;;16.90;99.90;;;;;;5037707;28;20166;-66
2023/07/13 02:45:29;;;;;;;5.22;1.23;;;16.90;99.90;;;;;;5034619;28;20044;-66
2023/07/13 02:47:55;;;;;;;2.95;1.13;;;16.90;99.90;;;;;;5043553;28;20044;-67
2023/07/13 02:50:21;;;;;;;4.88;1.15;;;16.90;99.90;;;;;;5050321;28;20048;-67
2023/07/13 02:52:47;;;;;;;4.15;1.17;;;16.90;99.90;;;;;;5053401;28;20129;-67
2023/07/13 02:55:13;;;;;;;5.07;1.10;;;16.90;99.90;;;;;;5043580;28;20045;-67
2023/07/13 02:57:39;;;;;;;5.15;1.30;;;16.90;99.90;;;;;;5034620;28;20053;-67
2023/07/13 03:00:05;;;;;;;5.57;1.00;;;16.90;99.90;;;;;;5037852;28;20067;-66
2023/07/13 03:02:33;;;;;;;3.08;1.20;;;16.90;99.90;;;;;;5046793;28;20154;-67
2023/07/13 03:04:58;;;;;;;3.78;1.20;;;16.90;99.90;;;;;;5035233;28;20061;-67
2023/07/13 03:07:25;;;;;;;10.73;1.75;;;16.90;99.90;;;;;;5037918;28;20138;-67
2023/07/13 03:09:58;;;;;;;5.72;1.67;;;16.80;99.90;;;;;;5047418;28;20056;-67
2023/07/13 03:12:24;;;;;;;6.80;1.42;;;16.80;99.90;;;;;;5052591;28;20087;-66
2023/07/13 03:14:49;;;;;;;;;;;16.80;99.90;;;;;;5053366;28;20594;-67
2023/07/13 03:17:15;;;;;;;5.88;1.63;;;16.80;99.90;;;;;;5036493;28;19920;-66
2023/07/13 03:19:41;;;;;;;7.93;2.00;;;16.80;99.90;;;;;;5047278;28;20148;-67
2023/07/13 03:22:07;;;;;;;13.35;1.88;;;16.80;99.90;;;;;;5049228;28;20045;-66
2023/07/13 03:24:34;;;;;;;5.88;1.63;;;16.90;99.90;;;;;;5031573;28;20458;-67
2023/07/13 03:27:02;;;;;;;10.32;2.50;;;16.90;99.90;;;;;;5046575;28;20529;-67
2023/07/13 03:29:28;;;;;;;5.97;1.92;;;16.90;99.90;;;;;;5055300;28;20259;-67
2023/07/13 03:31:53;;;;;;;10.48;1.90;;;16.80;99.90;;;;;;5034923;28;20562;-67
2023/07/13 03:34:19;;;;;;;3.70;1.38;;;16.80;99.90;;;;;;5049485;28;20041;-66
2023/07/13 03:36:45;;;;;;;8.95;1.98;;;16.80;99.90;;;;;;5052276;28;20144;-67
2023/07/13 03:39:11;;;;;;;9.48;1.65;;;16.90;99.90;;;;;;5053519;28;20382;-67
2023/07/13 03:41:37;;;;;;;5.28;1.65;;;16.90;99.90;;;;;;5032416;28;20045;-67
2023/07/13 03:44:03;;;;;;;9.57;1.85;;;16.90;99.90;;;;;;5041886;28;20055;-67
2023/07/13 03:46:29;;;;;;;;;;;16.90;99.90;;;;;;5049329;28;20044;-67
2023/07/13 03:48:55;;;;;;;12.18;1.83;;;16.90;99.90;;;;;;5027884;28;20283;-67
2023/07/13 03:51:20;;;;;;;10.02;2.25;;;16.80;99.90;;;;;;5048365;28;20163;-67
2023/07/13 03:53:48;;;;;;;10.07;2.47;;;16.80;99.90;;;;;;5030318;28;20122;-67
2023/07/13 03:56:15;;;;;;;9.95;1.80;;;16.80;99.90;;;;;;5052723;28;20045;-66
2023/07/13 03:58:43;;;;;;;12.70;1.50;;;16.80;99.90;;;;;;5057048;28;20045;-67
2023/07/13 04:01:10;;;;;;;8.88;1.80;;;16.80;99.90;;;;;;5047770;28;20183;-66
2023/07/13 04:03:36;;;;;;;6.55;2.10;;;16.80;99.90;;;;;;5048653;28;20445;-67
2023/07/13 04:06:05;;;;;;;10.38;2.00;;;16.80;99.90;;;;;;5033313;28;20119;-67
2023/07/13 04:08:33;;;;;;;10.32;2.00;;;16.80;99.90;;;;;;5035084;28;20105;-66
2023/07/13 04:11:00;;;;;;;9.25;1.67;;;16.80;99.90;;;;;;5040605;28;20263;-67
2023/07/13 04:13:26;;;;;;;8.68;1.50;;;16.80;99.90;;;;;;5048562;28;20110;-67
2023/07/13 04:15:52;;;;;;;;;;;16.80;99.90;;;;;;5054078;28;20406;-66
2023/07/13 04:18:19;;;;;;;10.10;1.73;;;16.80;99.90;;;;;;5024237;28;19924;-67
2023/07/13 04:20:46;;;;;;;8.65;2.03;;;16.80;99.90;;;;;;5045999;28;20043;-66
2023/07/13 04:23:12;;;;;;;5.05;1.63;;;16.80;99.90;;;;;;5042375;28;20048;-67
2023/07/13 04:25:38;;;;;;;10.13;1.60;;;16.80;99.90;;;;;;5032791;28;20037;-67
2023/07/13 04:28:05;;;;;;;8.93;1.83;;;16.80;99.90;;;;;;5027785;28;20532;-67
2023/07/13 04:30:31;;;;;;;7.18;1.88;;;16.80;99.90;;;;;;5050781;28;20045;-66
2023/07/13 04:32:57;;;;;;;8.68;1.30;;;16.80;99.90;;;;;;5035191;28;20138;-67
2023/07/13 04:35:23;;;;;;;6.35;1.52;;;16.80;99.90;;;;;;5040838;28;20072;-66
2023/07/13 04:37:50;;;;;;;5.03;1.08;;;16.80;99.90;;;;;;5045800;28;20128;-66
2023/07/13 04:40:17;;;;;;;6.80;1.30;;;16.80;99.90;;;;;;5047394;28;20075;-67
2023/07/13 04:42:44;;;;;;;5.30;1.45;;;16.80;99.90;;;;;;5044242;28;20067;-67
2023/07/13 04:45:11;;;;;;;5.03;1.30;;;16.90;99.90;;;;;;5045308;28;20041;-66
2023/07/13 04:47:37;;;;;;;9.27;1.73;;;16.90;99.90;;;;;;5048023;28;20052;-66
2023/07/13 04:50:04;;;;;;;8.70;1.67;;;16.90;99.90;;;;;;5029561;28;20120;-67
2023/07/13 04:52:30;;;;;;;6.18;1.85;;;17.00;99.90;;;;;;5037463;28;20063;-67
2023/07/13 04:54:56;;;;;;;4.13;1.05;;;17.00;99.90;;;;;;5040749;28;20128;-66
2023/07/13 04:57:22;;;;;;;6.78;1.45;;;17.00;99.90;;;;;;5050214;28;20056;-67
2023/07/13 04:59:47;;;;;;;6.07;1.63;;;17.10;99.90;;;;;;5038038;28;20141;-67
2023/07/13 05:02:13;;;;;;;5.25;2.05;;;17.10;99.90;;;;;;5043409;28;20128;-66
2023/07/13 05:04:39;;;;;;;6.70;1.52;;;17.10;99.90;;;;;;5034808;28;20064;-66
2023/07/13 05:07:06;;;;;;;4.82;1.50;;;17.10;99.90;;;;;;5028797;28;20052;-67
2023/07/13 05:09:32;;;;;;;5.00;1.27;;;17.10;99.90;;;;;;5025116;28;20171;-67
2023/07/13 05:11:58;;;;;;;5.28;1.67;;;17.20;99.90;;;;;;5057174;28;20123;-67
2023/07/13 05:14:24;;;;;;;8.52;1.30;;;17.20;99.90;;;;;;5047681;28;20440;-67
2023/07/13 05:16:49;;;;;;;8.75;2.00;;;17.20;99.90;;;;;;5045200;28;20111;-67
2023/07/13 05:19:15;;;;;;;6.72;1.83;;;17.30;99.90;;;;;;5041361;28;20033;-66
2023/07/13 05:21:41;;;;;;;6.45;1.25;;;17.30;99.90;;;;;;5046473;28;20044;-67
2023/07/13 05:24:07;;;;;;;6.03;1.33;;;17.30;99.90;;;;;;5055446;28;20094;-67
2023/07/13 05:26:33;;;;;;;6.25;1.58;;;17.40;99.90;;;;;;5035179;28;20268;-67
2023/07/13 05:28:59;;;;;;;;;;;17.40;99.90;;;;;;5028840;28;20053;-67
2023/07/13 05:31:25;;;;;;;6.93;1.30;;;17.40;99.90;;;;;;5022348;28;19958;-67
2023/07/13 05:33:51;;;;;;;10.02;1.40;;;17.40;99.90;;;;;;5014347;28;20051;-67
2023/07/13 05:36:16;;;;;;;8.65;1.83;;;17.50;99.90;;;;;;5020201;28;20066;-66
2023/07/13 05:38:42;;;;;;;8.07;1.95;;;17.50;99.90;;;;;;5041488;28;20255;-67
2023/07/13 05:41:08;;;;;;;4.88;2.00;;;17.60;99.90;;;;;;5027569;28;20050;-66
2023/07/13 05:43:34;;;;;;;4.13;1.42;;;17.60;99.90;;;;;;5048645;28;20122;-67
2023/07/13 05:46:00;;;;;;;;;;;17.60;99.90;;;;;;5049163;28;20049;-67
2023/07/13 05:48:25;;;;;;;4.28;1.20;;;17.60;99.90;;;;;;5033845;28;19921;-67
2023/07/13 05:50:51;;;;;;;7.60;1.40;;;17.60;99.90;;;;;;5048868;28;20069;-67
2023/07/13 05:53:17;;;;;;;6.22;2.05;;;17.60;99.90;;;;;;5035065;28;20119;-66
2023/07/13 05:55:47;;;;;;;5.63;1.40;;;17.70;99.90;;;;;;5048955;28;20384;-66
2023/07/13 05:58:13;;;;;;;7.20;1.52;;;17.70;99.90;;;;;;5049424;28;20036;-66
2023/07/13 06:00:40;;;;;;;10.18;2.10;;;17.80;99.90;;;;;;5041146;28;20125;-65
2023/07/13 06:03:08;;;;;;;8.57;1.50;;;17.80;99.90;;;;;;5046503;28;20114;-66
2023/07/13 06:05:36;;;;;;;5.72;1.60;;;17.90;99.90;;;;;;5045714;28;20048;-66
2023/07/13 06:08:02;;;;;;;3.50;1.25;;;17.90;99.90;;;;;;5039959;28;20247;-68
2023/07/13 06:10:28;;;;;;;;;;;17.90;99.90;;;;;;5031519;28;20087;-66
2023/07/13 06:12:54;;;;;;;8.38;1.50;;;17.90;99.90;;;;;;5024488;28;19920;-67
2023/07/13 06:15:20;;;;;;;8.30;1.38;;;17.90;99.90;;;;;;5031430;28;20045;-66
2023/07/13 06:17:46;;;;;;;2.72;1.40;;;18.00;99.90;;;;;;5040139;28;20074;-67
2023/07/13 06:20:12;;;;;;;;;;;18.00;99.90;;;;;;5051033;28;20539;-66
2023/07/13 06:22:38;;;;;;;11.02;1.55;;;18.10;99.90;;;;;;5050371;28;19971;-67
2023/07/13 06:25:04;;;;;;;5.63;1.70;;;18.20;99.90;;;;;;5017602;28;20048;-67
2023/07/13 06:27:30;;;;;;;5.18;1.70;;;18.30;99.90;;;;;;5032171;28;20041;-67
2023/07/13 06:29:56;;;;;;;;;;;18.40;99.90;;;;;;5045484;28;20502;-66
2023/07/13 06:32:21;;;;;;;13.00;2.08;;;18.40;99.90;;;;;;5051810;28;19928;-66
2023/07/13 06:34:47;;;;;;;3.47;1.55;;;18.40;99.90;;;;;;5048962;28;20052;-66
2023/07/13 06:37:13;;;;;;;5.55;1.45;;;18.40;99.90;;;;;;5041581;28;20466;-66
2023/07/13 06:39:39;;;;;;;4.75;1.98;;;18.40;99.90;;;;;;5034149;28;20462;-66
2023/07/13 06:42:05;;;;;;;2.92;1.27;;;18.40;99.90;;;;;;5050167;28;20163;-66
2023/07/13 06:44:31;;;;;;;6.45;1.80;;;18.30;99.90;;;;;;5044428;28;20055;-67
2023/07/13 06:46:57;;;;;;;7.70;2.05;;;18.20;99.90;;;;;;5032005;28;20071;-67
2023/07/13 06:49:23;;;;;;;4.82;1.60;;;18.20;99.90;;;;;;5043802;28;20069;-67
2023/07/13 06:51:49;;;;;;;5.50;1.33;;;18.10;99.90;;;;;;5049238;28;20414;-67
2023/07/13 06:54:15;;;;;;;6.00;1.65;;;18.10;99.90;;;;;;5050998;28;20422;-66
2023/07/13 06:56:40;;;;;;;4.68;2.22;;;18.20;99.90;;;;;;5046488;28;20077;-66
2023/07/13 06:59:06;;;;;;;12.82;1.73;;;18.20;99.90;;;;;;5045080;28;20115;-66
2023/07/13 07:01:32;;;;;;;8.30;1.67;;;18.20;99.90;;;;;;5049963;28;20075;-66
2023/07/13 07:03:57;;;;;;;7.13;1.80;;;18.20;99.90;;;;;;5034772;28;20041;-66
2023/07/13 07:06:23;;;;;;;8.10;1.70;;;18.30;99.90;;;;;;5049809;28;20041;-66
2023/07/13 07:08:50;;;;;;;6.20;1.52;;;18.30;99.90;;;;;;5049913;28;20041;-66
2023/07/13 07:11:26;;;;;;;5.25;1.48;;;18.40;99.90;;;;;;5035015;23;20419;-70
2023/07/13 07:13:53;;;;;;;6.63;1.63;;;18.40;99.90;;;;;;5002742;28;20082;-70
2023/07/13 07:16:20;;;;;;;4.97;1.98;;;18.30;99.90;;;;;;5019453;28;20088;-70
2023/07/13 07:18:47;;;;;;;9.63;2.45;;;18.30;99.90;;;;;;5010671;28;20042;-69
2023/07/13 07:21:14;;;;;;;10.82;2.38;;;18.20;99.90;;;;;;5009669;28;20084;-70
2023/07/13 07:23:40;;;;;;;5.63;1.48;;;18.10;99.90;;;;;;4995929;28;20042;-70
2023/07/13 07:26:08;;;;;;;4.47;1.40;;;18.10;99.90;;;;;;5010932;28;20042;-70
2023/07/13 07:28:34;;;;;;;5.00;1.58;;;18.00;99.90;;;;;;5006012;28;20046;-70
2023/07/13 07:31:00;;;;;;;4.15;1.60;;;18.00;99.90;;;;;;5002492;28;20038;-70
2023/07/13 07:33:26;;;;;;;3.42;1.40;;;18.00;99.90;;;;;;5004619;28;20415;-70
2023/07/13 07:35:52;;;;;;;6.22;1.70;;;18.00;99.90;;;;;;5005830;28;20038;-70
2023/07/13 07:38:17;;;;;;;;;;;18.10;99.90;;;;;;5011436;28;20053;-70
2023/07/13 07:40:43;;;;;;;2.42;1.00;;;18.10;99.90;;;;;;5002671;28;20391;-70
2023/07/13 07:43:11;;;;;;;2.58;1.05;;;18.10;99.90;;;;;;5009246;28;20038;-69
2023/07/13 07:45:38;;;;;;;6.22;1.30;;;18.10;99.90;;;;;;5008866;28;20046;-70
2023/07/13 07:48:05;;;;;;;6.25;1.20;;;18.10;99.90;;;;;;5003463;28;20069;-70
2023/07/13 07:50:32;;;;;;;4.28;1.05;;;18.10;99.90;;;;;;5008172;28;20399;-70
2023/07/13 07:52:57;;;;;;;;;;;18.10;99.90;;;;;;5010921;28;20491;-70
2023/07/13 07:55:25;;;;;;;7.82;1.65;;;18.10;99.90;;;;;;5010316;28;19921;-70
2023/07/13 07:57:51;;;;;;;4.25;1.40;;;18.10;99.90;;;;;;5009249;28;20046;-70
2023/07/13 08:00:17;;;;;;;3.95;1.30;;;18.10;99.90;;;;;;5010094;28;20093;-71
2023/07/13 08:02:44;;;;;;;7.38;1.88;;;18.10;99.90;;;;;;5010488;28;20479;-71
2023/07/13 08:05:10;;;;;;;;;;;18.20;99.90;;;;;;5008679;28;20484;-70
2023/07/13 08:07:38;;;;;;;6.00;2.00;;;18.20;99.90;;;;;;5039617;28;19984;-70
2023/07/13 08:10:04;;;;;;;3.70;1.58;;;18.20;99.90;;;;;;5004652;28;20484;-70
2023/07/13 08:12:34;;;;;;;4.20;1.67;;;18.30;99.90;;;;;;5004255;28;20061;-71
2023/07/13 08:15:00;;;;;;;3.13;1.35;;;18.30;99.90;;;;;;4993945;28;20137;-72
2023/07/13 08:17:27;;;;;;;5.97;1.70;;;18.30;99.90;;;;;;5017926;28;20125;-70
2023/07/13 08:19:52;;;;;;;7.50;1.42;;;18.40;99.90;;;;;;5009695;28;20049;-70
2023/07/13 08:22:18;;;;;;;4.82;1.67;;;18.50;99.90;;;;;;5008179;28;20037;-70
2023/07/13 08:24:44;;;;;;;5.05;1.42;;;18.60;99.90;;;;;;5007799;28;20480;-71
2023/07/13 08:27:13;;;;;;;4.05;1.35;;;18.70;99.90;;;;;;5009648;28;20428;-70
2023/07/13 08:29:39;;;;;;;4.63;1.73;;;18.70;99.90;;;;;;5007977;28;20099;-71
2023/07/13 08:32:09;;;;;;;5.15;1.13;;;18.60;99.90;;;;;;5016908;28;20125;-70
2023/07/13 08:34:35;;;;;;;4.45;1.20;;;18.60;99.90;;;;;;5008563;28;20073;-71
2023/07/13 08:37:02;;;;;;;3.40;1.35;;;18.70;99.90;;;;;;5017044;28;20057;-71
2023/07/13 08:39:30;;;;;;;4.95;1.45;;;18.70;99.90;;;;;;5008715;28;20069;-71
2023/07/13 08:42:01;;;;;;;4.57;1.40;;;18.80;99.90;;;;;;5007048;28;20500;-70
2023/07/13 08:44:54;;;;;;;5.78;1.80;;;18.80;99.90;;;;;;5039208;28;20042;-71
2023/07/13 08:47:23;;;;;;;4.38;1.42;;;18.90;99.90;;;;;;5008011;28;20510;-71
2023/07/13 08:49:50;;;;;;;6.30;1.80;;;18.80;99.90;;;;;;5000528;28;20050;-70
2023/07/13 08:52:33;;;;;;;7.03;1.70;;;18.80;99.90;;;;;;5004767;28;20249;-70
2023/07/13 08:55:16;;;;;;;3.70;1.65;;;18.90;99.90;;;;;;5006045;28;20129;-70
2023/07/13 08:57:45;;;;;;;5.72;1.50;;;18.90;99.90;;;;;;5009379;28;20080;-71
2023/07/13 09:00:15;;;;;;;4.05;1.23;;;19.00;99.90;;;;;;4999913;28;20571;-71
2023/07/13 09:02:55;;;;;;;3.08;1.60;;;19.10;99.90;;;;;;5001634;28;20518;-71
2023/07/13 09:05:34;;;;;;;4.25;1.40;;;19.20;99.90;;;;;;5000190;28;20129;-71
2023/07/13 09:08:46;;;;;;;2.33;1.13;;;19.30;99.90;;;;;;5005968;28;20046;-70
2023/07/13 09:11:36;;;;;;;3.10;1.05;;;19.40;99.90;;;;;;4969068;28;20049;-71
2023/07/13 09:14:37;;;;;;;4.25;1.20;;;19.50;99.90;;;;;;4977631;28;20066;-70
2023/07/13 09:17:10;;;;;;;3.17;1.00;;;19.60;99.90;;;;;;5003981;28;20054;-71
2023/07/13 09:19:36;;;;;;;2.35;0.90;;;19.70;99.90;;;;;;5007827;28;20092;-71
2023/07/13 09:22:03;;;;;;;;;;;19.80;99.90;;;;;;5008496;28;20459;-71
2023/07/13 09:24:37;;;;;;;3.88;1.08;;;19.80;99.90;;;;;;5039751;28;19917;-70
2023/07/13 09:27:17;;;;;;;2.03;0.95;;;19.90;99.90;;;;;;5006946;28;20100;-70
2023/07/13 09:29:49;;;;;;;3.75;1.13;;;19.90;99.90;;;;;;5008298;28;20034;-70
2023/07/13 09:32:21;;;;;;;7.47;1.15;;;19.90;99.90;;;;;;5006633;28;20059;-70
2023/07/13 09:34:54;;;;;;;2.97;0.90;;;20.00;99.90;;;;;;5008518;28;20112;-70
2023/07/13 09:37:27;;;;;;;3.50;1.08;;;20.00;99.90;;;;;;5006753;28;20099;-71
2023/07/13 09:39:54;;;;;;;2.53;1.00;;;20.10;99.90;;;;;;5007928;28;20048;-71
2023/07/13 09:42:22;;;;;;;2.45;0.90;;;20.10;99.90;;;;;;5006755;28;20539;-71
2023/07/13 09:44:51;;;;;;;2.60;0.50;;;20.10;99.90;;;;;;5000751;28;20038;-71
2023/07/13 09:47:26;;;;;;;1.48;0.80;;;20.10;99.90;;;;;;5005814;28;20095;-71
2023/07/13 09:50:08;;;;;;;2.90;0.98;;;20.10;99.90;;;;;;5004460;28;20233;-70
2023/07/13 09:52:46;;;;;;;4.53;0.80;;;20.00;99.90;;;;;;5000199;28;20054;-71
2023/07/13 09:55:38;;;;;;;2.75;1.00;;;20.00;99.90;;;;;;5007953;28;20042;-71
2023/07/13 09:58:17;;;;;;;1.73;0.80;;;20.10;99.90;;;;;;5005905;28;20396;-71
2023/07/13 10:00:53;;;;;;;2.28;0.73;;;20.20;99.90;;;;;;5007509;28;20064;-71
2023/07/13 10:03:27;;;;;;;3.78;0.80;;;20.30;99.90;;;;;;5023884;28;20484;-71
2023/07/13 10:05:54;;;;;;;2.45;0.90;;;20.40;99.90;;;;;;5008020;28;20045;-71
2023/07/13 10:08:30;;;;;;;2.92;1.05;;;20.60;99.90;;;;;;4998327;28;20040;-71
2023/07/13 10:11:24;;;;;;;4.05;1.00;;;20.60;99.90;;;;;;5003190;28;20281;-71
2023/07/13 10:14:02;;;;;;;0.98;0.57;;;20.60;99.90;;;;;;5018501;28;20046;-71
2023/07/13 10:16:35;;;;;;;2.25;0.80;;;20.50;99.90;;;;;;4999590;28;20046;-70
2023/07/13 10:19:25;;;;;;;3.25;0.80;;;20.50;99.90;;;;;;5007678;28;20049;-71
2023/07/13 10:21:57;;;;;;;1.30;0.63;;;20.40;99.90;;;;;;5000301;28;20053;-71
2023/07/13 10:24:25;;;;;;;3.33;0.80;;;20.50;99.90;;;;;;5015677;28;20426;-71
2023/07/13 10:27:25;;;;;;;1.75;0.70;;;20.60;99.90;;;;;;5007037;28;20492;-71
2023/07/13 10:30:12;;;;;;;1.60;0.80;;;20.70;99.90;;;;;;5006256;28;20065;-71
2023/07/13 10:32:38;;;;;;;1.67;0.70;;;20.90;99.90;;;;;;5002239;28;20121;-71
2023/07/13 10:35:06;;;;;;;4.35;1.00;;;21.10;99.90;;;;;;5007556;28;20129;-71
2023/07/13 10:37:44;;;;;;;4.95;1.20;;;21.10;99.90;;;;;;5006576;28;20085;-71
2023/07/13 10:40:19;;;;;;;1.75;0.70;;;21.00;99.90;;;;;;5007154;28;20037;-71
2023/07/13 10:42:48;;;;;;;3.25;1.30;;;21.00;99.90;;;;;;5006534;28;20041;-71
2023/07/13 10:45:21;;;;;;;2.40;0.90;;;21.00;99.90;;;;;;5006470;28;20522;-71
2023/07/13 10:47:48;;;;;;;3.75;0.90;;;21.10;99.90;;;;;;5001618;28;20092;-70
2023/07/13 10:50:26;;;;;;;3.60;0.98;;;21.20;99.90;;;;;;5004936;28;20206;-71
2023/07/13 10:52:54;;;;;;;3.22;1.10;;;21.30;99.90;;;;;;5006013;28;20054;-70
2023/07/13 10:55:42;;;;;;;6.10;1.23;;;21.40;99.90;;;;;;5007715;28;20046;-71
2023/07/13 10:58:33;;;;;;;3.30;0.90;;;21.50;99.90;;;;;;5006459;28;20133;-71
2023/07/13 11:01:11;;;;;;;2.30;0.73;;;21.60;99.90;;;;;;4998404;28;20049;-71
2023/07/13 11:03:46;;;;;;;4.85;1.10;;;21.70;99.90;;;;;;5002421;28;20058;-71
2023/07/13 11:06:16;;;;;;;1.27;0.60;;;21.70;99.90;;;;;;5009068;28;20139;-71
2023/07/13 11:08:51;;;;;;;5.18;1.08;;;21.60;99.90;;;;;;5007682;28;20042;-71
2023/07/13 11:11:24;;;;;;;2.38;0.88;;;21.50;99.90;;;;;;5025616;28;20525;-71
2023/07/13 11:13:50;;;;;;;1.58;0.63;;;21.40;99.90;;;;;;5003304;28;20516;-71
2023/07/13 11:16:15;;;;;;;;;;;21.30;99.90;;;;;;5009747;28;20106;-70
2023/07/13 11:18:45;;;;;;;8.38;1.20;;;21.40;99.90;;;;;;5009752;28;19917;-71
2023/07/13 11:21:28;;;;;;;1.88;0.90;;;21.40;99.90;;;;;;5009212;28;20061;-71
2023/07/13 11:24:02;;;;;;;5.72;1.10;;;21.50;99.90;;;;;;5002519;28;20049;-70
2023/07/13 11:26:51;;;;;;;3.30;0.98;;;21.70;99.90;;;;;;5002909;28;20045;-70
2023/07/13 11:29:17;;;;;;;5.80;1.30;;;21.90;99.90;;;;;;5002517;28;20099;-70
2023/07/13 11:31:53;;;;;;;;;;;22.00;99.90;;;;;;5008823;28;20125;-71
2023/07/13 11:34:30;;;;;;;5.15;1.00;;;22.00;99.90;;;;;;5010374;28;19917;-71
2023/07/13 11:36:58;;;;;;;3.90;1.23;;;22.00;99.90;;;;;;5010833;28;20107;-71
2023/07/13 11:39:51;;;;;;;1.75;0.73;;;22.00;99.90;;;;;;4991965;28;20050;-70
2023/07/13 11:42:20;;;;;;;4.25;1.08;;;22.10;99.90;;;;;;5007239;28;20107;-71
2023/07/13 11:44:48;;;;;;;2.70;0.95;;;22.10;99.90;;;;;;5025847;28;20288;-71
2023/07/13 11:47:23;;;;;;;4.15;1.42;;;22.10;99.90;;;;;;5009869;28;20030;-70
2023/07/13 11:49:52;;;;;;;4.22;0.93;;;22.20;99.90;;;;;;5009247;28;20041;-70
2023/07/13 11:52:21;;;;;;;6.95;1.10;;;22.10;99.90;;;;;;5008783;28;20068;-71
2023/07/13 11:55:00;;;;;;;3.38;0.70;;;22.00;99.90;;;;;;5009299;28;20038;-71
2023/07/13 11:57:34;;;;;;;1.60;0.63;;;21.90;99.90;;;;;;5008627;28;20046;-70
2023/07/13 12:00:26;;;;;;;9.93;1.27;;;21.90;99.90;;;;;;5002333;28;20568;-70
2023/07/13 12:02:55;;;;;;;4.13;0.95;;;22.00;99.60;;;;;;5001698;28;20054;-71
2023/07/13 12:05:21;;;;;;;4.85;1.15;;;22.10;99.90;;;;;;5008588;28;20042;-71
2023/07/13 12:07:47;;;;;;;;;;;22.20;99.90;;;;;;5019772;28;20041;-70
2023/07/13 12:10:15;;;;;;;3.28;0.77;;;22.20;99.20;;;;;;5007494;28;19917;-71
2023/07/13 12:12:57;;;;;;;4.15;1.00;;;22.30;99.90;;;;;;5008597;28;20388;-70
2023/07/13 12:15:30;;;;;;;5.22;1.08;;;22.40;99.90;;;;;;5007346;28;20474;-71
2023/07/13 12:17:56;;;;;;;3.70;0.93;;;22.40;99.90;;;;;;5009234;28;20057;-71
2023/07/13 12:20:36;;;;;;;5.90;1.10;;;22.60;99.90;;;;;;5007086;28;20086;-71
2023/07/13 12:23:06;;;;;;;4.70;0.80;;;22.60;99.90;;;;;;5009943;28;20128;-70
2023/07/13 12:25:32;;;;;;;3.17;0.73;;;22.60;99.90;;;;;;5001723;28;20092;-71
2023/07/13 12:27:58;;;;;;;;;;;22.60;99.50;;;;;;5008901;28;20041;-71
2023/07/13 12:30:31;;;;;;;2.88;0.68;;;22.50;96.70;;;;;;5026568;28;19967;-70
2023/07/13 12:33:00;;;;;;;1.75;0.70;;;22.50;99.10;;;;;;5008481;28;20108;-70
2023/07/13 12:35:29;;;;;;;3.17;1.33;;;22.50;99.00;;;;;;5007745;28;20046;-71
2023/07/13 12:38:00;;;;;;;4.68;0.93;;;22.40;98.70;;;;;;5009854;28;20069;-71
2023/07/13 12:40:34;;;;;;;1.60;0.50;;;22.30;98.50;;;;;;5007117;28;20073;-71
2023/07/13 12:43:04;;;;;;;4.35;1.27;;;22.20;98.30;;;;;;5009559;28;20044;-71
2023/07/13 12:45:30;;;;;;;3.33;1.10;;;22.20;98.90;;;;;;5006311;28;20046;-71
2023/07/13 12:48:18;;;;;;;1.60;0.80;;;22.30;99.20;;;;;;5008035;28;20141;-71
2023/07/13 12:50:47;;;;;;;3.30;0.82;;;22.30;99.20;;;;;;5002966;28;20450;-71
2023/07/13 12:53:20;;;;;;;3.30;1.23;;;22.30;99.20;;;;;;5001193;28;20265;-71
2023/07/13 12:55:52;;;;;;;3.63;1.00;;;22.30;98.80;;;;;;5009487;28;20034;-71
2023/07/13 12:58:26;;;;;;;2.53;0.85;;;22.40;99.50;;;;;;5000732;28;20046;-71
2023/07/13 13:00:54;;;;;;;4.57;1.13;;;22.50;98.70;;;;;;5009637;28;20060;-70